Météo Nord-Pas-de-Calais   La météo au plus près de chez vous

Station météorologique

Observations météo à Bernay (27056)

27056003 166 m Dernier relevé à 23:06
15°C
Humidité 82 % Vent 5.4 km/h

Journée consultée

Lundi 31 Août 2026

Synthèse de la journée

Périodes de référence en UTC

Température maximale

22.3°C

à 16:00

06h 06h

Température minimale

14.8°C

à 09:00

18h 18h

Rafale maximale

45 km/h

à 15:12

00h 00h

Précipitations

0.9 mm

Cumul quotidien

06h 06h

Ensoleillement

5h 40 mins

Durée quotidienne

00h 00h

Graphiques de la journée

Heure locale Réduire

Données détaillées

Relevés météo

Pas de 6 minutes Afficher les relevés infra-horaires
Relevés météo détaillés à Bernay pour le Lundi 31 Août 2026
Heure Température °C Point de rosée °C Humidité % Vent moyen (raf.), km/h Précipitations mm Ensoleillement min Rayonnement global W/m²
23:06 15 °C 12.9 °C 87 % 6 km/h (9 km/h) 0 mm0 mm 0 min 0 W/m²
23:00 15 °C 12.9 °C 87 % 6 km/h (9 km/h) 0 mm0 mm 0 min 0 W/m²
22:54 14.9 °C 12.8 °C 87 % 6 km/h (10 km/h) 0 mm0 mm 0 min 0 W/m²
22:48 15 °C 12.9 °C 87 % 7 km/h (10 km/h) 0 mm0 mm 0 min 0 W/m²
22:42 15.2 °C 12.7 °C 85 % 6 km/h (9 km/h) 0 mm0 mm 0 min 0 W/m²
22:36 15.4 °C 12.7 °C 84 % 6 km/h (10 km/h) 0 mm0 mm 0 min 0 W/m²
22:30 15.5 °C 12.8 °C 84 % 7 km/h (12 km/h) 0 mm0 mm 0 min 0 W/m²
22:24 15.5 °C 12.8 °C 84 % 8 km/h (11 km/h) 0 mm0 mm 0 min 0 W/m²
22:18 15.5 °C 12.6 °C 83 % 6 km/h (11 km/h) 0 mm0 mm 0 min 0 W/m²
22:12 15.5 °C 12.4 °C 82 % 5 km/h (9 km/h) 0 mm0 mm 0 min 0 W/m²
22:06 15.6 °C 12.5 °C 82 % 5 km/h (7 km/h) 0 mm0 mm 0 min 0 W/m²
22:00 16 °C 12.7 °C 81 % 6 km/h (8 km/h) 0 mm0 mm 0 min 0 W/m²
21:54 16.2 °C 12.6 °C 79 % 6 km/h (8 km/h) 0 mm0 mm 0 min 0 W/m²
21:48 16.5 °C 12.6 °C 78 % 6 km/h (9 km/h) 0 mm0 mm 0 min 0 W/m²
21:42 16.5 °C 12.6 °C 78 % 6 km/h (9 km/h) 0 mm0 mm 0 min 0 W/m²
21:36 16.5 °C 12.6 °C 78 % 6 km/h (9 km/h) 0 mm0 mm 0 min 0 W/m²
21:30 16.5 °C 12.6 °C 78 % 6 km/h (11 km/h) 0 mm0 mm 0 min 0 W/m²
21:24 16.7 °C 12.4 °C 76 % 6 km/h (11 km/h) 0 mm0 mm 0 min 0 W/m²
21:18 17 °C 12.5 °C 75 % 6 km/h (9 km/h) 0 mm0 mm 0 min 0 W/m²
21:12 17.3 °C 12.4 °C 73 % 6 km/h (12 km/h) 0 mm0 mm 0 min 0 W/m²
21:06 17.6 °C 12.3 °C 71 % 7 km/h (13 km/h) 0 mm0 mm 0 min 0 W/m²
21:00 17.8 °C 12.3 °C 70 % 8 km/h (13 km/h) 0 mm0 mm 0 min 0 W/m²
20:54 18 °C 12.2 °C 69 % 9 km/h (18 km/h) 0 mm0 mm 0 min 0 W/m²
20:48 18.2 °C 12.4 °C 69 % 12 km/h (19 km/h) 0 mm0 mm 0 min 0 W/m²
20:42 18.3 °C 12.5 °C 69 % 13 km/h (22 km/h) 0 mm0 mm 0 min 0 W/m²
20:36 18.5 °C 12.5 °C 68 % 13 km/h (22 km/h) 0 mm0 mm 0 min 0 W/m²
20:30 18.5 °C 12.7 °C 69 % 9 km/h (17 km/h) 0 mm0 mm 0 min 0 W/m²
20:24 18.7 °C 12.9 °C 69 % 10 km/h (17 km/h) 0 mm0 mm 0 min 0.1 W/m²
20:18 18.8 °C 12.8 °C 68 % 11 km/h (19 km/h) 0 mm0 mm 0 min 4 W/m²
20:12 19 °C 12.7 °C 67 % 14 km/h (22 km/h) 0 mm0 mm 0 min 4.6 W/m²
20:06 19.1 °C 12.6 °C 66 % 15 km/h (23 km/h) 0 mm0 mm 0 min 5.6 W/m²
20:00 19.3 °C 12.8 °C 66 % 16 km/h (24 km/h) 0 mm0 mm 0 min 10.6 W/m²
19:54 19.4 °C 12.6 °C 65 % 14 km/h (23 km/h) 0 mm0 mm 0 min 14.3 W/m²
19:48 19.6 °C 12.8 °C 65 % 12 km/h (19 km/h) 0 mm0 mm 0 min 16.2 W/m²
19:42 19.7 °C 12.9 °C 65 % 13 km/h (22 km/h) 0 mm0 mm 0 min 20.1 W/m²
19:36 19.8 °C 12.8 °C 64 % 16 km/h (23 km/h) 0 mm0 mm 0 min 24.2 W/m²
19:30 19.9 °C 12.6 °C 63 % 19 km/h (27 km/h) 0 mm0 mm 0 min 22.7 W/m²
19:24 20.1 °C 12.6 °C 62 % 17 km/h (27 km/h) 0 mm0 mm 0 min 28.1 W/m²
19:18 20.4 °C 12.6 °C 61 % 16 km/h (26 km/h) 0 mm0 mm 3 min 46.7 W/m²
19:12 20.3 °C 12.5 °C 61 % 19 km/h (27 km/h) 0 mm0 mm 2 min 47 W/m²
19:06 20.6 °C 12.6 °C 60 % 18 km/h (29 km/h) 0 mm0 mm 4 min 62.2 W/m²
19:00 20.7 °C 12.4 °C 59 % 20 km/h (30 km/h) 0 mm0 mm 5 min 67.9 W/m²
18:54 20.9 °C 12.3 °C 58 % 21 km/h (32 km/h) 0 mm0 mm 6 min 81.5 W/m²
18:48 21.1 °C 12.8 °C 59 % 19 km/h (32 km/h) 0 mm0 mm 6 min 89.8 W/m²
18:42 21.2 °C 12.6 °C 58 % 21 km/h (33 km/h) 0 mm0 mm 6 min 93.8 W/m²
18:36 21.3 °C 12.7 °C 58 % 22 km/h (33 km/h) 0 mm0 mm 6 min 112.3 W/m²
18:30 21.3 °C 12.7 °C 58 % 22 km/h (36 km/h) 0 mm0 mm 6 min 114.9 W/m²
18:24 21.2 °C 12.1 °C 56 % 21 km/h (36 km/h) 0 mm0 mm 6 min 118.5 W/m²
18:18 21.3 °C 12.4 °C 57 % 18 km/h (27 km/h) 0 mm0 mm 6 min 110.3 W/m²
18:12 21.1 °C 12.2 °C 57 % 18 km/h (32 km/h) 0 mm0 mm 3 min 94.9 W/m²
18:06 21.1 °C 12 °C 56 % 20 km/h (32 km/h) 0 mm0 mm 4 min 101.4 W/m²
18:00 20.9 °C 12.1 °C 57 % 20 km/h (32 km/h) 0 mm0 mm 1 min 86.4 W/m²
17:54 20.9 °C 12.1 °C 57 % 20 km/h (31 km/h) 0 mm0 mm 1 min 82 W/m²
17:48 21 °C 12.2 °C 57 % 21 km/h (32 km/h) 0 mm0 mm 0 min 72.1 W/m²
17:42 21.5 °C 12.1 °C 55 % 23 km/h (35 km/h) 0 mm0 mm 6 min 132.3 W/m²
17:36 21.6 °C 11.6 °C 53 % 22 km/h (35 km/h) 0 mm0 mm 6 min 145.5 W/m²
17:30 21.7 °C 12.3 °C 55 % 22 km/h (35 km/h) 0 mm0 mm 6 min 164.8 W/m²
17:24 21.6 °C 12.4 °C 56 % 24 km/h (38 km/h) 0 mm0 mm 6 min 173.2 W/m²
17:18 21.3 °C 11.9 °C 55 % 24 km/h (38 km/h) 0 mm0 mm 6 min 165.4 W/m²
17:12 21.3 °C 12.7 °C 58 % 22 km/h (37 km/h) 0 mm0 mm 2 min 126.6 W/m²
17:06 21.3 °C 12.2 °C 56 % 21 km/h (32 km/h) 0 mm0 mm 5 min 148.5 W/m²
17:00 20.8 °C 12.2 °C 58 % 19 km/h (31 km/h) 0 mm0 mm 1 min 85.7 W/m²
16:54 20.8 °C 12 °C 57 % 20 km/h (32 km/h) 0 mm0 mm 0 min 47.1 W/m²
16:48 21.9 °C 12.2 °C 54 % 21 km/h (35 km/h) 0 mm0 mm 4 min 169.4 W/m²
16:42 22 °C 12.8 °C 56 % 23 km/h (39 km/h) 0 mm0 mm 6 min 233.2 W/m²
16:36 21.4 °C 12.3 °C 56 % 22 km/h (39 km/h) 0 mm0 mm 3 min 178.1 W/m²
16:30 21.3 °C 13 °C 59 % 19 km/h (33 km/h) 0 mm0 mm 3 min 155.4 W/m²
16:24 20.7 °C 11.6 °C 56 % 23 km/h (36 km/h) 0 mm0 mm 0 min 78.2 W/m²
16:18 21 °C 11.3 °C 54 % 22 km/h (36 km/h) 0 mm0 mm 0 min 112.2 W/m²
16:12 21.3 °C 12.2 °C 56 % 20 km/h (35 km/h) 0 mm0 mm 4 min 181.8 W/m²
16:06 20.8 °C 12 °C 57 % 22 km/h (37 km/h) 0 mm0 mm 0 min 70.9 W/m²
16:00 21.9 °C 11.9 °C 53 % 24 km/h (37 km/h) 0 mm0 mm 5 min 229.8 W/m²
15:54 21.8 °C 12.4 °C 55 % 23 km/h (37 km/h) 0 mm0 mm 6 min 241.6 W/m²
15:48 21.6 °C 12.4 °C 56 % 22 km/h (37 km/h) 0 mm0 mm 3 min 174.5 W/m²
15:42 22.2 °C 12.7 °C 55 % 26 km/h (42 km/h) 0 mm0 mm 6 min 265.4 W/m²
15:36 21.9 °C 12.2 °C 54 % 30 km/h (42 km/h) 0 mm0 mm 6 min 287 W/m²
15:30 21.9 °C 11.9 °C 53 % 29 km/h (43 km/h) 0 mm0 mm 6 min 305.6 W/m²
15:24 21.9 °C 12.2 °C 54 % 28 km/h (43 km/h) 0 mm0 mm 6 min 286.8 W/m²
15:18 21.8 °C 12.1 °C 54 % 30 km/h (45 km/h) 0 mm0 mm 5 min 247.2 W/m²
15:12 21.7 °C 12.3 °C 55 % 30 km/h (45 km/h) 0 mm0 mm 6 min 303.3 W/m²
15:06 22.1 °C 12.9 °C 56 % 28 km/h (43 km/h) 0 mm0 mm 6 min 312.1 W/m²
15:00 21 °C 12.7 °C 59 % 24 km/h (39 km/h) 0 mm0 mm 2 min 161.8 W/m²
14:54 21.6 °C 13.8 °C 61 % 22 km/h (34 km/h) 0 mm0 mm 3 min 202.1 W/m²
14:48 21.6 °C 14 °C 62 % 23 km/h (35 km/h) 0 mm0 mm 6 min 319.6 W/m²
14:42 21.1 °C 13.8 °C 63 % 24 km/h (36 km/h) 0 mm0 mm 6 min 300.9 W/m²
14:36 20.9 °C 14.1 °C 65 % 26 km/h (41 km/h) 0 mm0 mm 6 min 306 W/m²
14:30 21 °C 15.1 °C 69 % 25 km/h (41 km/h) 0 mm0 mm 5 min 279.4 W/m²
14:24 20.7 °C 14.8 °C 69 % 20 km/h (35 km/h) 0 mm0 mm 4 min 229.9 W/m²
14:18 20.8 °C 15.6 °C 72 % 18 km/h (26 km/h) 0 mm0 mm 6 min 333.7 W/m²
14:12 20.4 °C 15.6 °C 74 % 18 km/h (28 km/h) 0 mm0 mm 6 min 294 W/m²
14:06 20.3 °C 15.9 °C 76 % 19 km/h (30 km/h) 0 mm0 mm 6 min 291.2 W/m²
14:00 19.9 °C 15.3 °C 75 % 20 km/h (31 km/h) 0 mm0 mm 6 min 283.8 W/m²
13:54 19.7 °C 15.3 °C 76 % 18 km/h (31 km/h) 0 mm0 mm 6 min 286.6 W/m²
13:48 19.5 °C 15.2 °C 76 % 17 km/h (27 km/h) 0 mm0 mm 6 min 265.1 W/m²
13:42 19.3 °C 15.4 °C 78 % 18 km/h (30 km/h) 0 mm0 mm 6 min 276.8 W/m²
13:36 18.9 °C 15.8 °C 82 % 21 km/h (33 km/h) 0 mm0 mm 6 min 284.3 W/m²
13:30 18.6 °C 15.3 °C 81 % 19 km/h (33 km/h) 0 mm0 mm 5 min 253.2 W/m²
13:24 18.4 °C 15.5 °C 83 % 19 km/h (32 km/h) 0 mm0 mm 3 min 210.4 W/m²
13:18 18.5 °C 15.6 °C 83 % 20 km/h (32 km/h) 0 mm0 mm 6 min 236 W/m²
13:12 18 °C 15.8 °C 87 % 21 km/h (33 km/h) 0 mm0 mm 4 min 227.6 W/m²
13:06 17.3 °C 15.1 °C 87 % 24 km/h (37 km/h) 0 mm0 mm 0 min 144.3 W/m²
13:00 17.3 °C 15.1 °C 87 % 27 km/h (41 km/h) 0 mm0 mm 0 min 124.8 W/m²
12:54 17.7 °C 14.8 °C 83 % 25 km/h (41 km/h) 0 mm0 mm 0 min 116.2 W/m²
12:48 18.2 °C 14.5 °C 79 % 24 km/h (34 km/h) 0 mm0 mm 0 min 69.2 W/m²
12:42 18.4 °C 14.5 °C 78 % 21 km/h (34 km/h) 0 mm0 mm 0 min 93.9 W/m²
12:36 18.7 °C 15.4 °C 81 % 16 km/h (30 km/h) 0 mm0 mm 1 min 163.8 W/m²
12:30 18.1 °C 15.5 °C 85 % 16 km/h (26 km/h) 0 mm0 mm 2 min 157.9 W/m²
12:24 17.3 °C 15.3 °C 88 % 17 km/h (30 km/h) 0 mm0 mm 0 min 102.7 W/m²
12:18 17.1 °C 14.6 °C 85 % 17 km/h (30 km/h) 0 mm0 mm 0 min 37.9 W/m²
12:12 17.5 °C 14.6 °C 83 % 17 km/h (31 km/h) 0 mm0 mm 0 min 50.8 W/m²
12:06 17.6 °C 14.1 °C 80 % 20 km/h (31 km/h) 0 mm0 mm 0 min 51.8 W/m²
12:00 18.1 °C 14.4 °C 79 % 18 km/h (31 km/h) 0 mm0 mm 0 min 65.9 W/m²
11:54 18.1 °C 14.4 °C 79 % 18 km/h (27 km/h) 0 mm0 mm 0 min 76.2 W/m²
11:48 18.2 °C 14.7 °C 80 % 21 km/h (34 km/h) 0 mm0 mm 0 min 99.5 W/m²
11:42 18.3 °C 14.4 °C 78 % 21 km/h (34 km/h) 0 mm0 mm 3 min 167.6 W/m²
11:36 18.5 °C 15.6 °C 83 % 20 km/h (32 km/h) 0 mm0 mm 6 min 200.3 W/m²
11:30 18.1 °C 15.5 °C 85 % 19 km/h (30 km/h) 0 mm0 mm 6 min 223.9 W/m²
11:24 17.7 °C 15.1 °C 85 % 18 km/h (30 km/h) 0 mm0 mm 6 min 219 W/m²
11:18 17.5 °C 15.3 °C 87 % 16 km/h (29 km/h) 0 mm0 mm 6 min 211.5 W/m²
11:12 17.4 °C 15.7 °C 90 % 18 km/h (29 km/h) 0 mm0 mm 6 min 204.5 W/m²
11:06 16.8 °C 15.3 °C 91 % 18 km/h (31 km/h) 0 mm0 mm 4 min 160.2 W/m²
11:00 16.7 °C 15.7 °C 94 % 14 km/h (25 km/h) 0 mm0.6 mm 4 min 163.4 W/m²
10:54 16.1 °C 15 °C 93 % 16 km/h (26 km/h) 0 mm0 mm 2 min 102.2 W/m²
10:48 16.1 °C 15.5 °C 96 % 19 km/h (32 km/h) 0.1 mm0 mm 4 min 148.3 W/m²
10:42 15.8 °C 14.8 °C 94 % 17 km/h (28 km/h) 0.1 mm0 mm 0 min 56.8 W/m²
10:36 15.8 °C 15 °C 95 % 18 km/h (28 km/h) 0 mm0 mm 0 min 75.8 W/m²
10:30 15.7 °C 14.6 °C 93 % 19 km/h (30 km/h) 0.2 mm0 mm 0 min 36.4 W/m²
10:24 16.1 °C 14.5 °C 90 % 20 km/h (30 km/h) 0.2 mm0 mm 0 min 33.7 W/m²
10:18 16.1 °C 14.3 °C 89 % 22 km/h (36 km/h) 0 mm0 mm 0 min 51.6 W/m²
10:12 16.4 °C 13.9 °C 85 % 22 km/h (36 km/h) 0 mm0 mm 0 min 53.4 W/m²
10:06 16.9 °C 14 °C 83 % 20 km/h (34 km/h) 0 mm0 mm 0 min 47.9 W/m²
10:00 16.9 °C 14 °C 83 % 20 km/h (34 km/h) 0 mm0 mm 0 min 52.2 W/m²
09:54 16.9 °C 13.8 °C 82 % 19 km/h (28 km/h) 0 mm0 mm 0 min 51.3 W/m²
09:48 17.1 °C 14.4 °C 84 % 17 km/h (27 km/h) 0 mm0 mm 5 min 117.2 W/m²
09:42 16.6 °C 14.2 °C 86 % 16 km/h (27 km/h) 0 mm0 mm 2 min 83.6 W/m²
09:36 16.3 °C 14.1 °C 87 % 14 km/h (27 km/h) 0 mm0 mm 0 min 36.2 W/m²
09:30 16.2 °C 14.6 °C 90 % 12 km/h (24 km/h) 0 mm0 mm 0 min 66.1 W/m²
09:24 15.9 °C 14.8 °C 93 % 11 km/h (19 km/h) 0 mm0 mm 5 min 80.7 W/m²
09:18 15.5 °C 14.5 °C 94 % 12 km/h (20 km/h) 0 mm0 mm 2 min 55.3 W/m²
09:12 15.3 °C 14.3 °C 94 % 13 km/h (20 km/h) 0 mm0 mm 0 min 43.5 W/m²
09:06 15.1 °C 14.5 °C 96 % 12 km/h (21 km/h) 0 mm0 mm 0 min 32.7 W/m²
09:00 14.9 °C 14.4 °C 97 % 9 km/h (21 km/h) 0 mm0.3 mm 0 min 10.3 W/m²
08:54 14.9 °C 14.4 °C 97 % 10 km/h (16 km/h) 0.2 mm0 mm 0 min 4.9 W/m²
08:48 14.9 °C 14.3 °C 96 % 13 km/h (21 km/h) 0 mm0 mm 0 min 12.3 W/m²
08:42 15 °C 14 °C 94 % 18 km/h (26 km/h) 0.1 mm0 mm 0 min 5.9 W/m²
08:36 15.4 °C 13.9 °C 91 % 17 km/h (26 km/h) 0 mm0 mm 0 min 0 W/m²
08:30 16.1 °C 13.4 °C 84 % 15 km/h (24 km/h) 0 mm0 mm 0 min 0.3 W/m²
08:24 16.2 °C 13.3 °C 83 % 16 km/h (27 km/h) 0 mm0 mm 0 min 1.6 W/m²
08:18 16.2 °C 13.3 °C 83 % 16 km/h (31 km/h) 0 mm0 mm 0 min 7.8 W/m²
08:12 16.2 °C 13.3 °C 83 % 15 km/h (27 km/h) 0 mm0 mm 0 min 6.2 W/m²
08:06 16.2 °C 13.3 °C 83 % 15 km/h (26 km/h) 0 mm0 mm 0 min 3.5 W/m²
08:00 16.2 °C 13.3 °C 83 % 15 km/h (24 km/h) 0 mm0 mm 0 min 2.7 W/m²
07:54 16.2 °C 13.3 °C 83 % 14 km/h (24 km/h) 0 mm0 mm 0 min 10.4 W/m²
07:48 16.2 °C 13.1 °C 82 % 14 km/h (28 km/h) 0 mm0 mm 0 min 0.8 W/m²
07:42 16.2 °C 13.1 °C 82 % 15 km/h (28 km/h) 0 mm0 mm 0 min 0 W/m²
07:36 16.2 °C 13.1 °C 82 % 16 km/h (26 km/h) 0 mm0 mm 0 min 0 W/m²
07:30 16.2 °C 13.1 °C 82 % 16 km/h (29 km/h) 0 mm0 mm 0 min 0 W/m²
07:24 16.3 °C 13 °C 81 % 18 km/h (33 km/h) 0 mm0 mm 0 min 0 W/m²
07:18 16.3 °C 13 °C 81 % 18 km/h (33 km/h) 0 mm0 mm 0 min 0 W/m²
07:12 16.2 °C 13.1 °C 82 % 18 km/h (32 km/h) 0 mm0 mm 0 min 0 W/m²
07:06 16.2 °C 13.1 °C 82 % 17 km/h (33 km/h) 0 mm0 mm 0 min 0 W/m²
07:00 16.2 °C 13.1 °C 82 % 18 km/h (33 km/h) 0 mm0 mm 0 min 0 W/m²
06:54 16.1 °C 13 °C 82 % 18 km/h (37 km/h) 0 mm0 mm 0 min 0 W/m²
06:48 16.1 °C 13 °C 82 % 18 km/h (30 km/h) 0 mm0 mm 0 min 0 W/m²
06:42 16.1 °C 13 °C 82 % 17 km/h (30 km/h) 0 mm0 mm 0 min 0 W/m²
06:36 16.1 °C 13 °C 82 % 16 km/h (26 km/h) 0 mm0 mm 0 min 0 W/m²
06:30 16.1 °C 13 °C 82 % 17 km/h (30 km/h) 0 mm0 mm 0 min 0 W/m²
06:24 15.9 °C 12.8 °C 82 % 17 km/h (33 km/h) 0 mm0 mm 0 min 0 W/m²
06:18 16 °C 12.9 °C 82 % 18 km/h (33 km/h) 0 mm0 mm 0 min 0 W/m²
06:12 16 °C 12.9 °C 82 % 18 km/h (33 km/h) 0 mm0 mm 0 min 0 W/m²
06:06 16.1 °C 13 °C 82 % 17 km/h (34 km/h) 0 mm0 mm 0 min 0 W/m²
06:00 16.1 °C 13 °C 82 % 18 km/h (28 km/h) 0 mm0 mm 0 min 0 W/m²
05:54 16.1 °C 13 °C 82 % 19 km/h (35 km/h) 0 mm0 mm 0 min 0 W/m²
05:48 16.2 °C 12.9 °C 81 % 20 km/h (35 km/h) 0 mm0 mm 0 min 0 W/m²
05:42 16.3 °C 13.2 °C 82 % 18 km/h (35 km/h) 0 mm0 mm 0 min 0 W/m²
05:36 16.2 °C 13.1 °C 82 % 15 km/h (32 km/h) 0 mm0 mm 0 min 0 W/m²
05:30 16.2 °C 13.3 °C 83 % 15 km/h (32 km/h) 0 mm0 mm 0 min 0 W/m²
05:24 16.1 °C 13.2 °C 83 % 16 km/h (31 km/h) 0 mm0 mm 0 min 0 W/m²
05:18 16.2 °C 13.1 °C 82 % 17 km/h (31 km/h) 0 mm0 mm 0 min 0 W/m²
05:12 16.2 °C 13.1 °C 82 % 17 km/h (31 km/h) 0 mm0 mm 0 min 0 W/m²
05:06 16.3 °C 13.2 °C 82 % 18 km/h (32 km/h) 0 mm0 mm 0 min 0 W/m²
05:00 16.4 °C 13.5 °C 83 % 18 km/h (32 km/h) 0 mm0 mm 0 min 0 W/m²
04:54 16.4 °C 13.5 °C 83 % 19 km/h (37 km/h) 0 mm0 mm 0 min 0 W/m²
04:48 16.5 °C 13.6 °C 83 % 17 km/h (37 km/h) 0 mm0 mm 0 min 0 W/m²
04:42 16.5 °C 13.6 °C 83 % 14 km/h (27 km/h) 0 mm0 mm 0 min 0 W/m²
04:36 16.6 °C 13.7 °C 83 % 18 km/h (30 km/h) 0 mm0 mm 0 min 0 W/m²
04:30 16.7 °C 13.6 °C 82 % 18 km/h (33 km/h) 0 mm0 mm 0 min 0 W/m²
04:24 16.8 °C 13.7 °C 82 % 19 km/h (33 km/h) 0 mm0 mm 0 min 0 W/m²
04:18 16.7 °C 13.6 °C 82 % 18 km/h (30 km/h) 0 mm0 mm 0 min 0 W/m²
04:12 16.7 °C 13.6 °C 82 % 18 km/h (35 km/h) 0 mm0 mm 0 min 0 W/m²
04:06 16.5 °C 13.6 °C 83 % 15 km/h (31 km/h) 0 mm0 mm 0 min 0 W/m²
04:00 16.5 °C 13.6 °C 83 % 15 km/h (28 km/h) 0 mm0 mm 0 min 0 W/m²
03:54 16.5 °C 13.6 °C 83 % 16 km/h (30 km/h) 0 mm0 mm 0 min 0 W/m²
03:48 16.5 °C 13.6 °C 83 % 17 km/h (32 km/h) 0 mm0 mm 0 min 0 W/m²
03:42 16.4 °C 13.5 °C 83 % 15 km/h (32 km/h) 0 mm0 mm 0 min 0 W/m²
03:36 16.2 °C 13.5 °C 84 % 15 km/h (29 km/h) 0 mm0 mm 0 min 0 W/m²
03:30 16.2 °C 13.3 °C 83 % 16 km/h (32 km/h) 0 mm0 mm 0 min 0 W/m²
03:24 16.3 °C 13.4 °C 83 % 18 km/h (32 km/h) 0 mm0 mm 0 min 0 W/m²
03:18 16.3 °C 13.4 °C 83 % 17 km/h (28 km/h) 0 mm0 mm 0 min 0 W/m²
03:12 16.3 °C 13.4 °C 83 % 17 km/h (28 km/h) 0 mm0 mm 0 min 0 W/m²
03:06 16.3 °C 13.6 °C 84 % 16 km/h (28 km/h) 0 mm0 mm 0 min 0 W/m²
03:00 16.4 °C 13.7 °C 84 % 17 km/h (30 km/h) 0 mm0 mm 0 min 0 W/m²
02:54 16.4 °C 13.7 °C 84 % 17 km/h (27 km/h) 0 mm0 mm 0 min 0 W/m²
02:48 16.3 °C 13.6 °C 84 % 16 km/h (27 km/h) 0 mm0 mm 0 min 0 W/m²
02:42 16.2 °C 13.5 °C 84 % 15 km/h (27 km/h) 0 mm0 mm 0 min 0 W/m²
02:36 16.3 °C 13.6 °C 84 % 17 km/h (34 km/h) 0 mm0 mm 0 min 0 W/m²
02:30 16.4 °C 13.5 °C 83 % 19 km/h (37 km/h) 0 mm0 mm 0 min 0 W/m²
02:24 16.4 °C 13.5 °C 83 % 18 km/h (32 km/h) 0 mm0 mm 0 min 0 W/m²
02:18 16.5 °C 13.6 °C 83 % 19 km/h (32 km/h) 0 mm0 mm 0 min 0 W/m²
02:12 16.5 °C 13.6 °C 83 % 20 km/h (32 km/h) 0 mm0 mm 0 min 0 W/m²
02:06 16.5 °C 13.6 °C 83 % 19 km/h (32 km/h) 0 mm0 mm 0 min 0 W/m²
02:00 16.5 °C 13.8 °C 84 % 17 km/h (33 km/h) 0 mm0 mm 0 min 0 W/m²
01:54 16.4 °C 13.9 °C 85 % 18 km/h (33 km/h) 0 mm0 mm 0 min 0 W/m²
01:48 16.6 °C 14.1 °C 85 % 18 km/h (32 km/h) 0 mm0 mm 0 min 0 W/m²
01:42 16.7 °C 14.2 °C 85 % 17 km/h (29 km/h) 0 mm0 mm 0 min 0 W/m²
01:36 16.7 °C 14.2 °C 85 % 15 km/h (29 km/h) 0 mm0 mm 0 min 0 W/m²
01:30 16.7 °C 14.2 °C 85 % 15 km/h (27 km/h) 0 mm0 mm 0 min 0 W/m²
01:24 16.8 °C 14.1 °C 84 % 18 km/h (32 km/h) 0 mm0 mm 0 min 0 W/m²
01:18 16.9 °C 14.2 °C 84 % 16 km/h (28 km/h) 0 mm0 mm 0 min 0 W/m²
01:12 16.7 °C 14 °C 84 % 15 km/h (28 km/h) 0 mm0 mm 0 min 0 W/m²
01:06 16.6 °C 13.9 °C 84 % 13 km/h (24 km/h) 0 mm0 mm 0 min 0 W/m²
01:00 16.6 °C 13.9 °C 84 % 14 km/h (25 km/h) 0 mm0 mm 0 min 0 W/m²
00:54 16.7 °C 14 °C 84 % 15 km/h (26 km/h) 0 mm0 mm 0 min 0 W/m²
00:48 16.7 °C 13.8 °C 83 % 15 km/h (26 km/h) 0 mm0 mm 0 min 0 W/m²
00:42 16.6 °C 13.7 °C 83 % 14 km/h (23 km/h) 0 mm0 mm 0 min 0 W/m²
00:36 16.6 °C 13.7 °C 83 % 15 km/h (24 km/h) 0 mm0 mm 0 min 0 W/m²
00:30 16.6 °C 13.7 °C 83 % 15 km/h (24 km/h) 0 mm0 mm 0 min 0 W/m²
00:24 16.5 °C 13.6 °C 83 % 15 km/h (25 km/h) 0 mm0 mm 0 min 0 W/m²
00:18 16.5 °C 13.6 °C 83 % 15 km/h (25 km/h) 0 mm0 mm 0 min 0 W/m²
00:12 16.4 °C 13.5 °C 83 % 13 km/h (23 km/h) 0 mm0 mm 0 min 0 W/m²
00:06 16.6 °C 13.5 °C 82 % 12 km/h (24 km/h) 0 mm0 mm 0 min 0 W/m²
00:00 16.7 °C 13.6 °C 82 % 14 km/h (25 km/h) 0 mm0 mm 0 min 0 W/m²

Données via Météo-France

Relevés météo à Bernay

Cette page rassemble les observations de la station de Bernay : température, humidité, vent, précipitations et pression atmosphérique. Les graphiques facilitent le suivi de la journée, tandis que le tableau donne accès aux mesures horaires et infra-horaires disponibles.

Pour replacer ces mesures dans leur contexte, consultez la climatologie de Bernay ainsi que ses normales et records. Retrouvez aussi la carte des observations météo en temps réel.